Date,TemperatureHighF,TemperatureAvgF,TemperatureLowF,DewpointHighF,DewpointAvgF,DewpointLowF,HumidityHigh,HumidityAvg,HumidityLow,PressureMaxIn,PressureMinIn,WindSpeedMaxMPH,WindSpeedAvgMPH,GustSpeedMaxMPH,PrecipitationSumIn
2014-2-1,27.9,24.1,19.4,24.0,21.4,15.4,99,90,80,30.08,29.61,13,6,0,0.00
2014-2-2,29.7,20.1,14.7,15.2,11.1,6.9,86,69,47,30.23,30.08,12,4,0,0.00
2014-2-3,39.2,26.3,11.5,18.6,11.4,7.3,93,58,28,30.12,29.91,10,4,0,0.00
2014-2-4,31.8,25.3,10.9,27.5,21.6,9.0,99,88,40,30.09,29.73,17,5,0,0.00
2014-2-5,9.9,5.7,1.0,7.9,-0.1,-3.0,93,77,65,30.49,30.10,16,8,0,0.00
2014-2-6,10.9,6.4,0.5,-1.4,-3.7,-6.2,77,63,47,30.49,30.25,6,3,0,0.00
2014-2-7,17.8,12.5,6.8,14.5,5.6,-1.8,90,74,62,30.24,29.98,8,4,0,0.00
2014-2-8,30.2,24.8,17.4,27.1,22.8,14.4,99,92,82,29.97,29.83,7,3,0,0.00
2014-2-9,27.3,22.0,12.4,27.1,19.2,9.7,99,89,79,30.22,29.94,10,5,0,0.00
2014-2-10,18.7,13.2,8.6,11.0,7.9,5.5,96,80,63,30.30,30.21,9,4,0,0.00
2014-2-11,27.9,16.2,6.4,9.3,6.2,2.6,86,66,43,30.28,30.03,6,2,0,0.10
2014-2-12,37.2,26.2,11.8,30.7,21.4,7.4,98,82,70,30.02,29.79,9,3,0,0.00
2014-2-13,48.4,35.5,24.3,32.8,28.8,24.1,99,79,50,29.80,29.55,8,2,0,0.00
2014-2-14,49.5,39.3,28.4,36.6,32.1,26.6,94,76,61,29.94,29.49,14,5,0,0.00
2014-2-15,60.3,39.9,27.7,37.9,30.8,24.3,96,72,41,29.94,29.71,14,4,0,0.00
2014-2-16,57.6,43.1,25.9,34.1,30.9,25.7,99,66,39,29.96,29.58,12,4,0,0.00
2014-2-17,60.6,49.7,39.9,38.2,30.5,24.8,89,50,27,29.95,29.54,20,6,0,0.00
2014-2-18,70.0,52.2,38.5,35.2,29.8,26.0,64,44,24,29.86,29.59,10,5,0,0.00
2014-2-19,57.6,47.7,32.7,56.5,33.4,26.6,99,61,32,29.87,29.30,12,3,0,0.00
2014-2-20,59.0,46.0,33.4,58.7,36.0,18.8,99,72,30,29.82,29.12,25,8,0,0.06
2014-2-21,59.7,42.3,28.6,25.7,21.3,17.5,74,47,23,29.84,29.72,10,3,0,0.00
2014-2-22,61.0,43.1,27.1,33.7,26.4,20.9,85,56,25,29.82,29.67,9,3,0,0.00
2014-2-23,41.9,32.7,24.1,28.5,20.1,11.2,82,60,45,30.13,29.85,14,7,0,0.00
2014-2-24,49.6,33.0,18.9,29.9,21.0,14.5,85,63,40,30.14,29.87,9,4,0,0.00
2014-2-25,30.0,23.3,16.7,20.8,17.0,6.9,88,77,58,30.33,30.07,11,7,0,0.00
2014-2-26,36.1,22.5,4.3,15.5,10.9,2.0,93,64,34,30.31,29.86,11,4,0,0.00
2014-2-27,47.5,33.4,15.3,19.2,14.8,11.6,92,51,25,29.91,29.59,11,4,0,0.00
2014-2-28,49.3,40.4,36.1,39.2,30.9,16.2,93,70,43,29.84,29.46,9,4,0,0.00